sensor_id;sensor_type;location;lat;lon;timestamp;temperature;humidity
64549;DHT22;49838;51.798;10.954;2024-01-15T00:00:06;7.80;46.40
64549;DHT22;49838;51.798;10.954;2024-01-15T00:02:34;7.80;46.30
64549;DHT22;49838;51.798;10.954;2024-01-15T00:05:03;7.80;46.50
64549;DHT22;49838;51.798;10.954;2024-01-15T00:07:31;7.80;46.40
64549;DHT22;49838;51.798;10.954;2024-01-15T00:09:58;7.80;46.40
64549;DHT22;49838;51.798;10.954;2024-01-15T00:12:25;7.80;46.30
64549;DHT22;49838;51.798;10.954;2024-01-15T00:14:53;7.90;46.40
64549;DHT22;49838;51.798;10.954;2024-01-15T00:17:20;7.80;46.40
64549;DHT22;49838;51.798;10.954;2024-01-15T00:19:47;7.90;46.40
64549;DHT22;49838;51.798;10.954;2024-01-15T00:22:16;8.00;46.30
64549;DHT22;49838;51.798;10.954;2024-01-15T00:24:44;8.00;46.20
64549;DHT22;49838;51.798;10.954;2024-01-15T00:27:11;8.10;46.20
64549;DHT22;49838;51.798;10.954;2024-01-15T00:29:38;8.10;46.20
64549;DHT22;49838;51.798;10.954;2024-01-15T00:32:05;8.10;46.20
64549;DHT22;49838;51.798;10.954;2024-01-15T00:34:33;8.10;46.20
64549;DHT22;49838;51.798;10.954;2024-01-15T00:37:00;8.10;46.80
64549;DHT22;49838;51.798;10.954;2024-01-15T00:39:29;8.10;46.10
64549;DHT22;49838;51.798;10.954;2024-01-15T00:41:56;8.10;46.10
64549;DHT22;49838;51.798;10.954;2024-01-15T00:44:24;8.10;46.10
64549;DHT22;49838;51.798;10.954;2024-01-15T00:46:51;8.10;46.00
64549;DHT22;49838;51.798;10.954;2024-01-15T00:49:18;8.10;46.00
64549;DHT22;49838;51.798;10.954;2024-01-15T00:51:45;8.10;46.00
64549;DHT22;49838;51.798;10.954;2024-01-15T00:54:14;8.10;46.20
64549;DHT22;49838;51.798;10.954;2024-01-15T00:56:42;8.10;46.20
64549;DHT22;49838;51.798;10.954;2024-01-15T00:59:10;8.10;46.30
64549;DHT22;49838;51.798;10.954;2024-01-15T01:01:40;8.10;46.20
64549;DHT22;49838;51.798;10.954;2024-01-15T01:04:08;8.20;46.10
64549;DHT22;49838;51.798;10.954;2024-01-15T01:06:36;8.20;46.10
64549;DHT22;49838;51.798;10.954;2024-01-15T01:09:03;8.10;46.10
64549;DHT22;49838;51.798;10.954;2024-01-15T01:11:31;8.20;46.10
64549;DHT22;49838;51.798;10.954;2024-01-15T01:13:59;8.20;46.00
64549;DHT22;49838;51.798;10.954;2024-01-15T01:16:27;8.20;46.00
64549;DHT22;49838;51.798;10.954;2024-01-15T01:18:54;8.20;46.10
64549;DHT22;49838;51.798;10.954;2024-01-15T01:21:22;8.20;46.00
64549;DHT22;49838;51.798;10.954;2024-01-15T01:23:49;8.10;46.10
64549;DHT22;49838;51.798;10.954;2024-01-15T01:26:16;8.10;46.10
64549;DHT22;49838;51.798;10.954;2024-01-15T01:28:44;8.20;46.10
64549;DHT22;49838;51.798;10.954;2024-01-15T01:31:13;8.10;46.10
64549;DHT22;49838;51.798;10.954;2024-01-15T01:33:42;8.10;46.20
64549;DHT22;49838;51.798;10.954;2024-01-15T01:36:09;8.10;46.20
64549;DHT22;49838;51.798;10.954;2024-01-15T01:38:37;8.10;46.20
64549;DHT22;49838;51.798;10.954;2024-01-15T01:41:04;8.00;46.20
64549;DHT22;49838;51.798;10.954;2024-01-15T01:43:31;8.00;46.30
64549;DHT22;49838;51.798;10.954;2024-01-15T01:46:00;8.00;46.90
64549;DHT22;49838;51.798;10.954;2024-01-15T01:48:30;8.10;46.30
64549;DHT22;49838;51.798;10.954;2024-01-15T01:50:59;8.00;46.10
64549;DHT22;49838;51.798;10.954;2024-01-15T01:53:28;8.00;46.10
64549;DHT22;49838;51.798;10.954;2024-01-15T01:55:57;8.00;46.10
64549;DHT22;49838;51.798;10.954;2024-01-15T01:58:25;8.00;46.20
64549;DHT22;49838;51.798;10.954;2024-01-15T02:00:53;8.10;46.20
64549;DHT22;49838;51.798;10.954;2024-01-15T02:03:20;8.10;46.10
64549;DHT22;49838;51.798;10.954;2024-01-15T02:05:49;8.00;46.10
64549;DHT22;49838;51.798;10.954;2024-01-15T02:08:17;8.00;46.10
64549;DHT22;49838;51.798;10.954;2024-01-15T02:10:44;8.00;46.00
64549;DHT22;49838;51.798;10.954;2024-01-15T02:13:12;8.00;46.00
64549;DHT22;49838;51.798;10.954;2024-01-15T02:15:39;7.90;46.00
64549;DHT22;49838;51.798;10.954;2024-01-15T02:18:07;7.90;46.00
64549;DHT22;49838;51.798;10.954;2024-01-15T02:20:35;7.90;45.90
64549;DHT22;49838;51.798;10.954;2024-01-15T02:23:11;7.80;45.80
64549;DHT22;49838;51.798;10.954;2024-01-15T02:25:39;7.70;45.90
64549;DHT22;49838;51.798;10.954;2024-01-15T02:28:07;7.70;45.90
64549;DHT22;49838;51.798;10.954;2024-01-15T02:30:37;7.70;45.50
64549;DHT22;49838;51.798;10.954;2024-01-15T02:33:06;7.60;45.30
64549;DHT22;49838;51.798;10.954;2024-01-15T02:35:33;7.50;45.40
64549;DHT22;49838;51.798;10.954;2024-01-15T02:38:02;7.50;45.50
64549;DHT22;49838;51.798;10.954;2024-01-15T02:40:31;7.50;45.30
64549;DHT22;49838;51.798;10.954;2024-01-15T02:42:58;7.40;45.20
64549;DHT22;49838;51.798;10.954;2024-01-15T02:45:27;7.30;45.10
64549;DHT22;49838;51.798;10.954;2024-01-15T02:47:54;7.30;45.00
64549;DHT22;49838;51.798;10.954;2024-01-15T02:50:21;7.20;45.10
64549;DHT22;49838;51.798;10.954;2024-01-15T02:52:49;7.20;45.00
64549;DHT22;49838;51.798;10.954;2024-01-15T02:55:16;7.10;44.70
64549;DHT22;49838;51.798;10.954;2024-01-15T02:57:44;7.20;44.80
64549;DHT22;49838;51.798;10.954;2024-01-15T03:00:12;7.10;44.70
64549;DHT22;49838;51.798;10.954;2024-01-15T03:02:40;7.10;44.70
64549;DHT22;49838;51.798;10.954;2024-01-15T03:05:09;7.10;44.80
64549;DHT22;49838;51.798;10.954;2024-01-15T03:07:36;7.00;44.80
64549;DHT22;49838;51.798;10.954;2024-01-15T03:10:04;7.10;44.70
64549;DHT22;49838;51.798;10.954;2024-01-15T03:12:32;7.10;44.50
64549;DHT22;49838;51.798;10.954;2024-01-15T03:15:01;7.10;44.40
64549;DHT22;49838;51.798;10.954;2024-01-15T03:17:28;7.10;44.40
64549;DHT22;49838;51.798;10.954;2024-01-15T03:19:55;7.10;44.40
64549;DHT22;49838;51.798;10.954;2024-01-15T03:22:23;7.10;44.50
64549;DHT22;49838;51.798;10.954;2024-01-15T03:24:50;7.10;44.40
64549;DHT22;49838;51.798;10.954;2024-01-15T03:27:17;7.20;44.30
64549;DHT22;49838;51.798;10.954;2024-01-15T03:29:44;7.30;44.30
64549;DHT22;49838;51.798;10.954;2024-01-15T03:32:13;7.30;44.40
64549;DHT22;49838;51.798;10.954;2024-01-15T03:34:42;7.30;44.30
64549;DHT22;49838;51.798;10.954;2024-01-15T03:37:09;7.30;44.40
64549;DHT22;49838;51.798;10.954;2024-01-15T03:39:36;7.30;44.50
64549;DHT22;49838;51.798;10.954;2024-01-15T03:42:03;7.30;44.50
64549;DHT22;49838;51.798;10.954;2024-01-15T03:44:31;7.30;44.60
64549;DHT22;49838;51.798;10.954;2024-01-15T03:46:58;7.30;44.60
64549;DHT22;49838;51.798;10.954;2024-01-15T03:49:28;7.40;44.80
64549;DHT22;49838;51.798;10.954;2024-01-15T03:51:55;7.40;44.60
64549;DHT22;49838;51.798;10.954;2024-01-15T03:54:22;7.50;44.50
64549;DHT22;49838;51.798;10.954;2024-01-15T03:56:49;7.50;44.30
64549;DHT22;49838;51.798;10.954;2024-01-15T03:59:17;7.60;44.30
64549;DHT22;49838;51.798;10.954;2024-01-15T04:01:47;7.50;44.10
64549;DHT22;49838;51.798;10.954;2024-01-15T04:04:15;7.50;44.20
64549;DHT22;49838;51.798;10.954;2024-01-15T04:06:44;7.50;44.20
64549;DHT22;49838;51.798;10.954;2024-01-15T04:09:11;7.40;44.40
64549;DHT22;49838;51.798;10.954;2024-01-15T04:11:39;7.30;44.40
64549;DHT22;49838;51.798;10.954;2024-01-15T04:14:06;7.40;44.40
64549;DHT22;49838;51.798;10.954;2024-01-15T04:16:33;7.40;44.60
64549;DHT22;49838;51.798;10.954;2024-01-15T04:19:01;7.50;44.60
64549;DHT22;49838;51.798;10.954;2024-01-15T04:21:28;7.40;44.40
64549;DHT22;49838;51.798;10.954;2024-01-15T04:23:56;7.40;44.50
64549;DHT22;49838;51.798;10.954;2024-01-15T04:26:24;7.30;44.60
64549;DHT22;49838;51.798;10.954;2024-01-15T04:28:51;7.30;44.50
64549;DHT22;49838;51.798;10.954;2024-01-15T04:31:22;7.30;44.50
64549;DHT22;49838;51.798;10.954;2024-01-15T04:33:49;7.30;44.60
64549;DHT22;49838;51.798;10.954;2024-01-15T04:36:18;7.30;44.60
64549;DHT22;49838;51.798;10.954;2024-01-15T04:38:45;7.40;44.60
64549;DHT22;49838;51.798;10.954;2024-01-15T04:41:14;7.40;44.60
64549;DHT22;49838;51.798;10.954;2024-01-15T04:43:43;7.40;44.70
64549;DHT22;49838;51.798;10.954;2024-01-15T04:46:10;7.50;44.70
64549;DHT22;49838;51.798;10.954;2024-01-15T04:48:37;7.60;44.70
64549;DHT22;49838;51.798;10.954;2024-01-15T04:51:05;7.60;44.60
64549;DHT22;49838;51.798;10.954;2024-01-15T04:53:33;7.60;44.70
64549;DHT22;49838;51.798;10.954;2024-01-15T04:56:01;7.60;44.60
64549;DHT22;49838;51.798;10.954;2024-01-15T04:58:30;7.60;44.60
64549;DHT22;49838;51.798;10.954;2024-01-15T05:00:57;7.50;44.70
64549;DHT22;49838;51.798;10.954;2024-01-15T05:03:24;7.50;44.80
64549;DHT22;49838;51.798;10.954;2024-01-15T05:05:52;7.50;44.70
64549;DHT22;49838;51.798;10.954;2024-01-15T05:08:19;7.50;44.80
64549;DHT22;49838;51.798;10.954;2024-01-15T05:10:47;7.60;44.90
64549;DHT22;49838;51.798;10.954;2024-01-15T05:13:14;7.50;45.00
64549;DHT22;49838;51.798;10.954;2024-01-15T05:15:43;7.50;45.00
64549;DHT22;49838;51.798;10.954;2024-01-15T05:18:10;7.60;45.00
64549;DHT22;49838;51.798;10.954;2024-01-15T05:20:37;7.70;44.90
64549;DHT22;49838;51.798;10.954;2024-01-15T05:23:04;7.70;44.90
64549;DHT22;49838;51.798;10.954;2024-01-15T05:25:32;7.70;44.80
64549;DHT22;49838;51.798;10.954;2024-01-15T05:27:59;7.80;45.10
64549;DHT22;49838;51.798;10.954;2024-01-15T05:30:26;7.80;44.90
64549;DHT22;49838;51.798;10.954;2024-01-15T05:32:55;7.80;45.00
64549;DHT22;49838;51.798;10.954;2024-01-15T05:35:23;7.90;44.90
64549;DHT22;49838;51.798;10.954;2024-01-15T05:37:50;7.90;44.90
64549;DHT22;49838;51.798;10.954;2024-01-15T05:40:17;7.90;45.00
64549;DHT22;49838;51.798;10.954;2024-01-15T05:42:45;7.90;44.80
64549;DHT22;49838;51.798;10.954;2024-01-15T05:45:12;7.90;44.90
64549;DHT22;49838;51.798;10.954;2024-01-15T05:47:39;7.90;44.90
64549;DHT22;49838;51.798;10.954;2024-01-15T05:50:08;7.90;44.90
64549;DHT22;49838;51.798;10.954;2024-01-15T05:52:36;7.90;45.10
64549;DHT22;49838;51.798;10.954;2024-01-15T05:55:04;7.90;44.90
64549;DHT22;49838;51.798;10.954;2024-01-15T05:57:31;7.90;44.80
64549;DHT22;49838;51.798;10.954;2024-01-15T05:59:59;7.90;44.80
64549;DHT22;49838;51.798;10.954;2024-01-15T06:02:26;7.80;44.70
64549;DHT22;49838;51.798;10.954;2024-01-15T06:04:54;7.80;44.80
64549;DHT22;49838;51.798;10.954;2024-01-15T06:07:22;7.80;44.90
64549;DHT22;49838;51.798;10.954;2024-01-15T06:09:50;7.70;44.80
64549;DHT22;49838;51.798;10.954;2024-01-15T06:12:17;7.70;44.90
64549;DHT22;49838;51.798;10.954;2024-01-15T06:14:44;7.60;44.90
64549;DHT22;49838;51.798;10.954;2024-01-15T06:17:11;7.60;45.00
64549;DHT22;49838;51.798;10.954;2024-01-15T06:19:38;7.50;45.00
64549;DHT22;49838;51.798;10.954;2024-01-15T06:22:06;7.60;45.20
64549;DHT22;49838;51.798;10.954;2024-01-15T06:24:34;7.60;45.10
64549;DHT22;49838;51.798;10.954;2024-01-15T06:27:01;7.70;45.20
64549;DHT22;49838;51.798;10.954;2024-01-15T06:29:29;7.80;45.20
64549;DHT22;49838;51.798;10.954;2024-01-15T06:31:57;7.80;45.10
64549;DHT22;49838;51.798;10.954;2024-01-15T06:34:24;7.70;45.10
64549;DHT22;49838;51.798;10.954;2024-01-15T06:36:51;7.70;45.10
64549;DHT22;49838;51.798;10.954;2024-01-15T06:39:18;7.70;45.20
64549;DHT22;49838;51.798;10.954;2024-01-15T06:41:47;7.60;45.20
64549;DHT22;49838;51.798;10.954;2024-01-15T06:44:14;7.50;45.20
64549;DHT22;49838;51.798;10.954;2024-01-15T06:46:41;7.60;45.40
64549;DHT22;49838;51.798;10.954;2024-01-15T06:49:09;7.60;45.30
64549;DHT22;49838;51.798;10.954;2024-01-15T06:51:37;7.60;45.20
64549;DHT22;49838;51.798;10.954;2024-01-15T06:54:04;7.50;45.20
64549;DHT22;49838;51.798;10.954;2024-01-15T06:56:32;7.50;45.30
64549;DHT22;49838;51.798;10.954;2024-01-15T06:59:01;7.50;45.30
64549;DHT22;49838;51.798;10.954;2024-01-15T07:01:29;7.50;45.40
64549;DHT22;49838;51.798;10.954;2024-01-15T07:03:56;7.40;45.40
64549;DHT22;49838;51.798;10.954;2024-01-15T07:06:23;7.40;45.50
64549;DHT22;49838;51.798;10.954;2024-01-15T07:08:51;7.40;45.50
64549;DHT22;49838;51.798;10.954;2024-01-15T07:11:18;7.40;45.40
64549;DHT22;49838;51.798;10.954;2024-01-15T07:13:45;7.40;45.40
64549;DHT22;49838;51.798;10.954;2024-01-15T07:16:14;7.40;45.40
64549;DHT22;49838;51.798;10.954;2024-01-15T07:18:41;7.40;45.50
64549;DHT22;49838;51.798;10.954;2024-01-15T07:21:08;7.50;45.50
64549;DHT22;49838;51.798;10.954;2024-01-15T07:23:36;7.50;45.40
64549;DHT22;49838;51.798;10.954;2024-01-15T07:26:03;7.50;45.50
64549;DHT22;49838;51.798;10.954;2024-01-15T07:28:31;7.40;45.30
64549;DHT22;49838;51.798;10.954;2024-01-15T07:30:58;7.50;45.30
64549;DHT22;49838;51.798;10.954;2024-01-15T07:33:28;7.40;45.90
64549;DHT22;49838;51.798;10.954;2024-01-15T07:35:55;7.50;45.40
64549;DHT22;49838;51.798;10.954;2024-01-15T07:38:22;7.60;45.40
64549;DHT22;49838;51.798;10.954;2024-01-15T07:40:50;7.60;45.40
64549;DHT22;49838;51.798;10.954;2024-01-15T07:43:17;7.60;45.30
64549;DHT22;49838;51.798;10.954;2024-01-15T07:45:44;7.60;45.40
64549;DHT22;49838;51.798;10.954;2024-01-15T07:48:12;7.60;45.40
64549;DHT22;49838;51.798;10.954;2024-01-15T07:50:41;7.60;45.40
64549;DHT22;49838;51.798;10.954;2024-01-15T07:53:08;7.60;45.50
64549;DHT22;49838;51.798;10.954;2024-01-15T07:55:36;7.60;45.50
64549;DHT22;49838;51.798;10.954;2024-01-15T07:58:03;7.60;45.70
64549;DHT22;49838;51.798;10.954;2024-01-15T08:00:30;7.70;45.70
64549;DHT22;49838;51.798;10.954;2024-01-15T08:02:58;7.80;45.60
64549;DHT22;49838;51.798;10.954;2024-01-15T08:05:25;7.90;45.70
64549;DHT22;49838;51.798;10.954;2024-01-15T08:07:55;8.00;45.60
64549;DHT22;49838;51.798;10.954;2024-01-15T08:10:22;8.10;45.60
64549;DHT22;49838;51.798;10.954;2024-01-15T08:12:49;8.20;45.50
64549;DHT22;49838;51.798;10.954;2024-01-15T08:15:17;8.20;45.40
64549;DHT22;49838;51.798;10.954;2024-01-15T08:17:44;8.30;45.30
64549;DHT22;49838;51.798;10.954;2024-01-15T08:20:11;8.40;45.30
64549;DHT22;49838;51.798;10.954;2024-01-15T08:22:38;8.50;45.20
64549;DHT22;49838;51.798;10.954;2024-01-15T08:25:07;8.50;45.20
64549;DHT22;49838;51.798;10.954;2024-01-15T08:27:36;8.70;45.40
64549;DHT22;49838;51.798;10.954;2024-01-15T08:30:04;8.70;45.20
64549;DHT22;49838;51.798;10.954;2024-01-15T08:32:32;8.70;45.20
64549;DHT22;49838;51.798;10.954;2024-01-15T08:35:02;8.70;45.30
64549;DHT22;49838;51.798;10.954;2024-01-15T08:37:30;8.80;45.40
64549;DHT22;49838;51.798;10.954;2024-01-15T08:39:57;9.00;45.40
64549;DHT22;49838;51.798;10.954;2024-01-15T08:42:26;9.10;45.50
64549;DHT22;49838;51.798;10.954;2024-01-15T08:44:53;9.20;45.40
64549;DHT22;49838;51.798;10.954;2024-01-15T08:47:20;9.20;45.30
64549;DHT22;49838;51.798;10.954;2024-01-15T08:49:47;9.30;45.20
64549;DHT22;49838;51.798;10.954;2024-01-15T08:52:15;9.30;45.20
64549;DHT22;49838;51.798;10.954;2024-01-15T08:54:42;9.30;45.20
64549;DHT22;49838;51.798;10.954;2024-01-15T08:57:09;9.30;45.20
64549;DHT22;49838;51.798;10.954;2024-01-15T08:59:38;9.30;45.20
64549;DHT22;49838;51.798;10.954;2024-01-15T09:02:07;9.20;45.10
64549;DHT22;49838;51.798;10.954;2024-01-15T09:04:34;9.30;45.10
64549;DHT22;49838;51.798;10.954;2024-01-15T09:07:01;9.30;44.90
64549;DHT22;49838;51.798;10.954;2024-01-15T09:09:29;9.30;44.70
64549;DHT22;49838;51.798;10.954;2024-01-15T09:11:56;9.40;44.90
64549;DHT22;49838;51.798;10.954;2024-01-15T09:14:23;9.50;44.70
64549;DHT22;49838;51.798;10.954;2024-01-15T09:16:54;9.60;44.70
64549;DHT22;49838;51.798;10.954;2024-01-15T09:19:22;9.80;45.50
64549;DHT22;49838;51.798;10.954;2024-01-15T09:21:49;9.90;44.80
64549;DHT22;49838;51.798;10.954;2024-01-15T09:24:16;10.00;43.90
64549;DHT22;49838;51.798;10.954;2024-01-15T09:26:43;10.10;43.80
64549;DHT22;49838;51.798;10.954;2024-01-15T09:29:10;10.20;43.80
64549;DHT22;49838;51.798;10.954;2024-01-15T09:31:39;10.10;43.50
64549;DHT22;49838;51.798;10.954;2024-01-15T09:34:09;10.10;43.70
64549;DHT22;49838;51.798;10.954;2024-01-15T09:36:39;10.00;43.70
64549;DHT22;49838;51.798;10.954;2024-01-15T09:39:07;10.00;43.90
64549;DHT22;49838;51.798;10.954;2024-01-15T09:41:35;10.00;43.80
64549;DHT22;49838;51.798;10.954;2024-01-15T09:44:03;9.90;44.70
64549;DHT22;49838;51.798;10.954;2024-01-15T09:46:31;9.90;44.50
64549;DHT22;49838;51.798;10.954;2024-01-15T09:48:59;9.80;44.50
64549;DHT22;49838;51.798;10.954;2024-01-15T09:51:29;9.70;44.50
64549;DHT22;49838;51.798;10.954;2024-01-15T09:53:58;9.70;44.60
64549;DHT22;49838;51.798;10.954;2024-01-15T09:56:26;9.80;44.40
64549;DHT22;49838;51.798;10.954;2024-01-15T09:58:53;9.80;44.50
64549;DHT22;49838;51.798;10.954;2024-01-15T10:01:23;9.80;44.40
64549;DHT22;49838;51.798;10.954;2024-01-15T10:03:50;9.70;44.50
64549;DHT22;49838;51.798;10.954;2024-01-15T10:06:18;9.70;44.70
64549;DHT22;49838;51.798;10.954;2024-01-15T10:08:50;9.70;44.70
64549;DHT22;49838;51.798;10.954;2024-01-15T10:11:18;9.60;44.80
64549;DHT22;49838;51.798;10.954;2024-01-15T10:13:46;9.60;44.80
64549;DHT22;49838;51.798;10.954;2024-01-15T10:16:16;9.60;44.90
64549;DHT22;49838;51.798;10.954;2024-01-15T10:18:44;9.60;44.90
64549;DHT22;49838;51.798;10.954;2024-01-15T10:21:11;9.70;45.00
64549;DHT22;49838;51.798;10.954;2024-01-15T10:23:38;9.90;45.20
64549;DHT22;49838;51.798;10.954;2024-01-15T10:26:07;10.30;45.10
64549;DHT22;49838;51.798;10.954;2024-01-15T10:28:35;10.80;45.80
64549;DHT22;49838;51.798;10.954;2024-01-15T10:31:02;11.10;45.40
64549;DHT22;49838;51.798;10.954;2024-01-15T10:33:30;11.60;45.50
64549;DHT22;49838;51.798;10.954;2024-01-15T10:35:58;12.10;46.20
64549;DHT22;49838;51.798;10.954;2024-01-15T10:38:27;12.60;46.20
64549;DHT22;49838;51.798;10.954;2024-01-15T10:40:55;13.00;46.30
64549;DHT22;49838;51.798;10.954;2024-01-15T10:43:24;13.20;44.80
64549;DHT22;49838;51.798;10.954;2024-01-15T10:45:51;13.20;43.80
64549;DHT22;49838;51.798;10.954;2024-01-15T10:48:19;13.00;43.20
64549;DHT22;49838;51.798;10.954;2024-01-15T10:50:47;12.80;42.50
64549;DHT22;49838;51.798;10.954;2024-01-15T10:53:16;12.60;42.20
64549;DHT22;49838;51.798;10.954;2024-01-15T10:55:45;12.40;42.10
64549;DHT22;49838;51.798;10.954;2024-01-15T10:58:17;12.20;40.90
64549;DHT22;49838;51.798;10.954;2024-01-15T11:00:46;12.20;41.50
64549;DHT22;49838;51.798;10.954;2024-01-15T11:03:14;12.10;41.30
64549;DHT22;49838;51.798;10.954;2024-01-15T11:05:42;12.10;41.50
64549;DHT22;49838;51.798;10.954;2024-01-15T11:08:10;12.10;41.40
64549;DHT22;49838;51.798;10.954;2024-01-15T11:10:41;12.20;42.30
64549;DHT22;49838;51.798;10.954;2024-01-15T11:13:15;12.40;42.80
64549;DHT22;49838;51.798;10.954;2024-01-15T11:15:57;12.60;42.90
64549;DHT22;49838;51.798;10.954;2024-01-15T11:18:27;13.00;43.40
64549;DHT22;49838;51.798;10.954;2024-01-15T11:23:54;14.00;45.10
64549;DHT22;49838;51.798;10.954;2024-01-15T11:26:28;14.80;46.40
64549;DHT22;49838;51.798;10.954;2024-01-15T11:28:57;15.60;47.20
64549;DHT22;49838;51.798;10.954;2024-01-15T11:31:28;15.90;45.90
64549;DHT22;49838;51.798;10.954;2024-01-15T11:33:56;16.00;43.00
64549;DHT22;49838;51.798;10.954;2024-01-15T11:39:39;15.70;41.80
64549;DHT22;49838;51.798;10.954;2024-01-15T11:42:09;15.50;41.70
64549;DHT22;49838;51.798;10.954;2024-01-15T11:44:41;15.30;41.20
64549;DHT22;49838;51.798;10.954;2024-01-15T11:47:10;15.10;41.60
64549;DHT22;49838;51.798;10.954;2024-01-15T11:49:53;14.90;40.70
64549;DHT22;49838;51.798;10.954;2024-01-15T11:52:26;14.60;39.70
64549;DHT22;49838;51.798;10.954;2024-01-15T11:55:01;14.30;39.50
64549;DHT22;49838;51.798;10.954;2024-01-15T11:57:37;14.10;39.50
64549;DHT22;49838;51.798;10.954;2024-01-15T12:00:09;14.00;39.60
64549;DHT22;49838;51.798;10.954;2024-01-15T12:02:39;13.80;39.80
64549;DHT22;49838;51.798;10.954;2024-01-15T12:05:08;13.60;39.50
64549;DHT22;49838;51.798;10.954;2024-01-15T12:07:36;13.30;39.20
64549;DHT22;49838;51.798;10.954;2024-01-15T12:10:04;13.10;38.70
64549;DHT22;49838;51.798;10.954;2024-01-15T12:12:37;12.90;38.80
64549;DHT22;49838;51.798;10.954;2024-01-15T12:15:13;12.70;39.20
64549;DHT22;49838;51.798;10.954;2024-01-15T12:17:42;12.60;39.60
64549;DHT22;49838;51.798;10.954;2024-01-15T12:20:10;12.40;39.60
64549;DHT22;49838;51.798;10.954;2024-01-15T12:22:38;12.30;39.90
64549;DHT22;49838;51.798;10.954;2024-01-15T12:25:06;12.20;39.70
64549;DHT22;49838;51.798;10.954;2024-01-15T12:27:33;11.90;39.50
64549;DHT22;49838;51.798;10.954;2024-01-15T12:30:01;11.70;39.70
64549;DHT22;49838;51.798;10.954;2024-01-15T12:32:28;11.60;40.20
64549;DHT22;49838;51.798;10.954;2024-01-15T12:34:57;11.60;39.90
64549;DHT22;49838;51.798;10.954;2024-01-15T12:37:25;11.60;40.00
64549;DHT22;49838;51.798;10.954;2024-01-15T12:39:52;11.60;40.20
64549;DHT22;49838;51.798;10.954;2024-01-15T12:42:20;11.60;40.00
64549;DHT22;49838;51.798;10.954;2024-01-15T12:44:48;11.40;39.90
64549;DHT22;49838;51.798;10.954;2024-01-15T12:47:16;11.30;40.40
64549;DHT22;49838;51.798;10.954;2024-01-15T12:49:46;11.30;40.40
64549;DHT22;49838;51.798;10.954;2024-01-15T12:52:18;11.30;40.40
64549;DHT22;49838;51.798;10.954;2024-01-15T12:54:46;11.20;40.40
64549;DHT22;49838;51.798;10.954;2024-01-15T12:57:13;11.10;40.10
64549;DHT22;49838;51.798;10.954;2024-01-15T12:59:40;11.00;40.20
64549;DHT22;49838;51.798;10.954;2024-01-15T13:02:07;10.90;40.10
64549;DHT22;49838;51.798;10.954;2024-01-15T13:04:35;10.80;40.00
64549;DHT22;49838;51.798;10.954;2024-01-15T13:07:02;10.60;40.00
64549;DHT22;49838;51.798;10.954;2024-01-15T13:09:31;10.50;40.00
64549;DHT22;49838;51.798;10.954;2024-01-15T13:11:58;10.40;40.00
64549;DHT22;49838;51.798;10.954;2024-01-15T13:14:27;10.40;40.00
64549;DHT22;49838;51.798;10.954;2024-01-15T13:16:54;10.40;40.10
64549;DHT22;49838;51.798;10.954;2024-01-15T13:19:22;10.30;39.70
64549;DHT22;49838;51.798;10.954;2024-01-15T13:21:50;10.20;39.80
64549;DHT22;49838;51.798;10.954;2024-01-15T13:24:17;10.20;39.70
64549;DHT22;49838;51.798;10.954;2024-01-15T13:26:46;10.20;39.80
64549;DHT22;49838;51.798;10.954;2024-01-15T13:29:13;10.20;40.00
64549;DHT22;49838;51.798;10.954;2024-01-15T13:31:40;10.20;39.70
64549;DHT22;49838;51.798;10.954;2024-01-15T13:34:08;10.00;38.80
64549;DHT22;49838;51.798;10.954;2024-01-15T13:36:36;10.00;38.90
64549;DHT22;49838;51.798;10.954;2024-01-15T13:39:04;9.90;40.10
64549;DHT22;49838;51.798;10.954;2024-01-15T13:41:34;9.90;39.90
64549;DHT22;49838;51.798;10.954;2024-01-15T13:44:03;9.80;39.60
64549;DHT22;49838;51.798;10.954;2024-01-15T13:46:31;9.70;39.70
64549;DHT22;49838;51.798;10.954;2024-01-15T13:48:59;9.80;39.80
64549;DHT22;49838;51.798;10.954;2024-01-15T13:51:28;9.70;39.70
64549;DHT22;49838;51.798;10.954;2024-01-15T13:53:55;9.70;39.80
64549;DHT22;49838;51.798;10.954;2024-01-15T13:56:23;9.60;39.60
64549;DHT22;49838;51.798;10.954;2024-01-15T13:58:50;9.50;39.40
64549;DHT22;49838;51.798;10.954;2024-01-15T14:01:19;9.50;39.90
64549;DHT22;49838;51.798;10.954;2024-01-15T14:03:47;9.60;39.90
64549;DHT22;49838;51.798;10.954;2024-01-15T14:06:14;9.50;39.80
64549;DHT22;49838;51.798;10.954;2024-01-15T14:08:41;9.40;40.20
64549;DHT22;49838;51.798;10.954;2024-01-15T14:11:08;9.30;39.80
64549;DHT22;49838;51.798;10.954;2024-01-15T14:13:36;9.30;39.90
64549;DHT22;49838;51.798;10.954;2024-01-15T14:16:03;9.30;40.10
64549;DHT22;49838;51.798;10.954;2024-01-15T14:18:32;9.30;40.00
64549;DHT22;49838;51.798;10.954;2024-01-15T14:20:59;9.20;40.10
64549;DHT22;49838;51.798;10.954;2024-01-15T14:23:27;9.20;40.30
64549;DHT22;49838;51.798;10.954;2024-01-15T14:25:54;9.10;40.20
64549;DHT22;49838;51.798;10.954;2024-01-15T14:28:21;9.00;40.30
64549;DHT22;49838;51.798;10.954;2024-01-15T14:30:49;9.00;40.30
64549;DHT22;49838;51.798;10.954;2024-01-15T14:33:17;9.00;40.40
64549;DHT22;49838;51.798;10.954;2024-01-15T14:35:46;8.90;40.40
64549;DHT22;49838;51.798;10.954;2024-01-15T14:38:13;8.80;40.50
64549;DHT22;49838;51.798;10.954;2024-01-15T14:40:40;8.80;40.50
64549;DHT22;49838;51.798;10.954;2024-01-15T14:43:07;8.70;40.60
64549;DHT22;49838;51.798;10.954;2024-01-15T14:45:35;8.70;40.70
64549;DHT22;49838;51.798;10.954;2024-01-15T14:48:02;8.60;40.50
64549;DHT22;49838;51.798;10.954;2024-01-15T14:50:30;8.50;40.50
64549;DHT22;49838;51.798;10.954;2024-01-15T14:52:59;8.50;40.70
64549;DHT22;49838;51.798;10.954;2024-01-15T14:55:26;8.40;40.70
64549;DHT22;49838;51.798;10.954;2024-01-15T14:57:54;8.40;40.80
64549;DHT22;49838;51.798;10.954;2024-01-15T15:00:22;8.40;40.90
64549;DHT22;49838;51.798;10.954;2024-01-15T15:02:49;8.40;40.80
64549;DHT22;49838;51.798;10.954;2024-01-15T15:05:16;8.30;40.70
64549;DHT22;49838;51.798;10.954;2024-01-15T15:07:43;8.30;40.80
64549;DHT22;49838;51.798;10.954;2024-01-15T15:10:14;8.20;40.80
64549;DHT22;49838;51.798;10.954;2024-01-15T15:12:44;8.20;40.80
64549;DHT22;49838;51.798;10.954;2024-01-15T15:15:12;8.10;40.70
64549;DHT22;49838;51.798;10.954;2024-01-15T15:17:39;8.10;40.80
64549;DHT22;49838;51.798;10.954;2024-01-15T15:20:07;8.10;40.70
64549;DHT22;49838;51.798;10.954;2024-01-15T15:22:34;8.10;40.90
64549;DHT22;49838;51.798;10.954;2024-01-15T15:25:05;8.10;40.90
64549;DHT22;49838;51.798;10.954;2024-01-15T15:27:36;8.00;40.90
64549;DHT22;49838;51.798;10.954;2024-01-15T15:30:06;8.00;41.00
64549;DHT22;49838;51.798;10.954;2024-01-15T15:32:33;7.90;41.10
64549;DHT22;49838;51.798;10.954;2024-01-15T15:35:02;7.80;41.10
64549;DHT22;49838;51.798;10.954;2024-01-15T15:37:30;7.80;41.10